EWG2PL EDDK-ENBR
Flight info
| Callsign | EWG2PL |
|---|---|
| Flight time | N/A |
| Altitude | 36000 |
| Route | PODIP6D PODIP DCT PELUN DCT WRB DCT TOLGI DCT LUTIR DCT BADAB |
| Aircraft | A320/M-SDE3FGHIRWY/LB1 |
Departure
| Time | 2026-04-23 16:04 |
|---|---|
| Airport | Cologne Bonn Airport (EDDK) |
Arrival
| Time | N/A |
|---|---|
| Airport | Bergen Airport, Flesland (ENBR) |
| Time | Latitude | Longitude | Altitude | Speed | Heading |
|---|---|---|---|---|---|
| 2026-04-23 15:37 | 50.88125 | 7.12042 | 232 ft | 0 kts | 216° |
| 2026-04-23 15:48 | 50.88132 | 7.12050 | 235 ft | 4 kts | 217° |
| 2026-04-23 15:48 | 50.88153 | 7.12076 | 233 ft | 4 kts | 216° |
| 2026-04-23 15:49 | 50.88173 | 7.12096 | 236 ft | 4 kts | 185° |
| 2026-04-23 15:49 | 50.88190 | 7.12083 | 234 ft | 4 kts | 117° |
| 2026-04-23 15:49 | 50.88202 | 7.12046 | 234 ft | 2 kts | 124° |
| 2026-04-23 15:49 | 50.88203 | 7.12043 | 234 ft | 0 kts | 126° |
| 2026-04-23 15:54 | 50.88202 | 7.12047 | 232 ft | 3 kts | 126° |
| 2026-04-23 15:54 | 50.88165 | 7.12127 | 232 ft | 11 kts | 126° |
| 2026-04-23 15:54 | 50.88123 | 7.12220 | 233 ft | 11 kts | 126° |
| 2026-04-23 15:54 | 50.88088 | 7.12343 | 234 ft | 12 kts | 118° |
| 2026-04-23 15:55 | 50.88024 | 7.12461 | 232 ft | 14 kts | 135° |
| 2026-04-23 15:55 | 50.87954 | 7.12562 | 232 ft | 13 kts | 138° |
| 2026-04-23 15:55 | 50.87868 | 7.12610 | 232 ft | 18 kts | 175° |
| 2026-04-23 15:55 | 50.87744 | 7.12736 | 232 ft | 21 kts | 138° |
| 2026-04-23 15:56 | 50.87632 | 7.12896 | 232 ft | 25 kts | 137° |
| 2026-04-23 15:56 | 50.87502 | 7.13083 | 232 ft | 24 kts | 138° |
| 2026-04-23 15:56 | 50.87382 | 7.13256 | 232 ft | 22 kts | 138° |
| 2026-04-23 15:56 | 50.87272 | 7.13417 | 231 ft | 20 kts | 137° |
| 2026-04-23 15:57 | 50.87157 | 7.13585 | 238 ft | 24 kts | 137° |
| 2026-04-23 15:57 | 50.87051 | 7.13735 | 242 ft | 18 kts | 138° |
| 2026-04-23 15:57 | 50.86959 | 7.13867 | 246 ft | 17 kts | 137° |
| 2026-04-23 15:57 | 50.86928 | 7.13953 | 250 ft | 5 kts | 105° |
| 2026-04-23 15:58 | 50.86915 | 7.14071 | 255 ft | 17 kts | 100° |
| 2026-04-23 15:58 | 50.86896 | 7.14242 | 256 ft | 16 kts | 100° |
| 2026-04-23 15:58 | 50.86871 | 7.14465 | 260 ft | 22 kts | 97° |
| 2026-04-23 15:58 | 50.86900 | 7.14683 | 262 ft | 19 kts | 72° |
| 2026-04-23 15:59 | 50.86954 | 7.14860 | 267 ft | 16 kts | 64° |
| 2026-04-23 15:59 | 50.86997 | 7.15004 | 270 ft | 12 kts | 64° |
| 2026-04-23 15:59 | 50.87028 | 7.15105 | 273 ft | 8 kts | 64° |
| 2026-04-23 15:59 | 50.87059 | 7.15206 | 275 ft | 10 kts | 64° |
| 2026-04-23 16:00 | 50.87083 | 7.15284 | 277 ft | 6 kts | 64° |
| 2026-04-23 16:00 | 50.87102 | 7.15362 | 281 ft | 8 kts | 79° |
| 2026-04-23 16:00 | 50.87062 | 7.15445 | 278 ft | 10 kts | 153° |
| 2026-04-23 16:00 | 50.87001 | 7.15490 | 278 ft | 9 kts | 155° |
| 2026-04-23 16:01 | 50.86952 | 7.15477 | 281 ft | 7 kts | 233° |
| 2026-04-23 16:01 | 50.86950 | 7.15470 | 280 ft | 0 kts | 244° |
| 2026-04-23 16:03 | 50.86911 | 7.15340 | 277 ft | 46 kts | 245° |
| 2026-04-23 16:04 | 50.86660 | 7.14520 | 264 ft | 116 kts | 244° |
| 2026-04-23 16:04 | 50.86246 | 7.13115 | 394 ft | 155 kts | 251° |
| 2026-04-23 16:04 | 50.85761 | 7.11512 | 946 ft | 166 kts | 247° |
| 2026-04-23 16:04 | 50.85252 | 7.09871 | 1702 ft | 165 kts | 249° |
| 2026-04-23 16:05 | 50.84918 | 7.08780 | 2163 ft | 170 kts | 249° |
| 2026-04-23 16:05 | 50.84102 | 7.06393 | 2640 ft | 202 kts | 229° |
| 2026-04-23 16:05 | 50.82776 | 7.05363 | 2935 ft | 234 kts | 186° |
| 2026-04-23 16:05 | 50.81076 | 7.05721 | 3358 ft | 260 kts | 163° |
| 2026-04-23 16:06 | 50.79327 | 7.06771 | 3853 ft | 276 kts | 152° |
| 2026-04-23 16:06 | 50.77957 | 7.08755 | 3962 ft | 272 kts | 117° |
| 2026-04-23 16:06 | 50.77405 | 7.11597 | 3982 ft | 266 kts | 90° |
| 2026-04-23 16:06 | 50.77464 | 7.14468 | 3985 ft | 265 kts | 84° |
| 2026-04-23 16:07 | 50.77540 | 7.17423 | 3983 ft | 266 kts | 85° |
| 2026-04-23 16:07 | 50.77601 | 7.20304 | 3986 ft | 266 kts | 85° |
| 2026-04-23 16:07 | 50.77731 | 7.23253 | 4630 ft | 268 kts | 75° |
| 2026-04-23 16:07 | 50.78398 | 7.25963 | 5697 ft | 264 kts | 59° |